Time;durP1;ratioP1;P1;durP2;ratioP2;P2;SDS_P1;SDS_P2;PMS_P1;PMS_P2;Temp;Humidity;BMP_temperature;BMP_pressure;BME280_temperature;BME280_humidity;BME280_pressure;Samples;Min_cycle;Max_cycle;Signal;HPM_P1;HPM_P2
2022/06/06 00:01:54;;;;;;;;;;;;;;;;;;4953107;28;19918;-66
2022/06/06 00:04:19;;;;;;;;;;;;;;;;;;4955933;28;19929;-66
2022/06/06 00:06:44;;;;;;;;;;;;;;;;;;4954318;28;19926;-66
2022/06/06 00:09:09;;;;;;;;;;;;;;;;;;4954463;28;19925;-66
2022/06/06 00:11:35;;;;;;;;;;;;;;;;;;4960180;28;19918;-66
2022/06/06 00:14:00;;;;;;;;;;;;;;;;;;4958415;28;19918;-66
2022/06/06 00:16:25;;;;;;;;;;;;;;;;;;4957443;28;20354;-66
2022/06/06 00:18:50;;;;;;;;;;;;;;;;;;4956728;28;20359;-66
2022/06/06 00:21:16;;;;;;;;;;;;;;;;;;4956321;28;20365;-66
2022/06/06 00:23:41;;;;;;;;;;;;;;;;;;4955811;28;19926;-66
2022/06/06 00:26:07;;;;;;;;;;;;;;;;;;4938917;28;20290;-66
2022/06/06 00:28:32;;;;;;;;;;;;;;;;;;4955959;28;20683;-66
2022/06/06 00:34:48;;;;;;;;;;;;;;;;;;4957208;28;19918;-66
2022/06/06 00:36:27;;;;;;;;;;;;;;;;;;4956060;28;19961;-66
2022/06/06 00:38:52;;;;;;;;;;;;;;;;;;4957626;28;19960;-66
2022/06/06 00:41:17;;;;;;;;;;;;;;;;;;4955472;28;19928;-66
2022/06/06 00:43:43;;;;;;;;;;;;;;;;;;4956440;28;19933;-66
2022/06/06 00:46:08;;;;;;;;;;;;;;;;;;4954241;28;20318;-66
2022/06/06 00:48:33;;;;;;;;;;;;;;;;;;4957898;28;19918;-66
2022/06/06 00:50:58;;;;;;;;;;;;;;;;;;4963661;28;20240;-66
2022/06/06 00:53:24;;;;;;;;;;;;;;;;;;4960450;28;19918;-66
2022/06/06 00:55:49;;;;;;;;;;;;;;;;;;4959115;28;20371;-66
2022/06/06 00:58:14;;;;;;;;;;;;;;;;;;4963359;28;19918;-66
2022/06/06 01:00:39;;;;;;;;;;;;;;;;;;4959448;28;20065;-66
2022/06/06 01:03:05;;;;;;;;;;;;;;;;;;4963213;28;20415;-67
2022/06/06 01:05:30;;;;;;;;;;;;;;;;;;4960944;28;19922;-66
2022/06/06 01:07:55;;;;;;;;;;;;;;;;;;4974597;28;19922;-66
2022/06/06 01:10:21;;;;;;;;;;;;;;;;;;4959145;28;20402;-66
2022/06/06 01:12:47;;;;;;;;;;;;;;;;;;4959180;28;20297;-66
2022/06/06 01:15:12;;;;;;;;;;;;;;;;;;4959018;28;19918;-65
2022/06/06 01:17:37;;;;;;;;;;;;;;;;;;4960480;28;19958;-66
2022/06/06 01:20:03;;;;;;;;;;;;;;;;;;4959345;28;20009;-66
2022/06/06 01:22:28;;;;;;;;;;;;;;;;;;4960734;28;19984;-66
2022/06/06 01:24:53;;;;;;;;;;;;;;;;;;4962743;28;19969;-66
2022/06/06 01:27:19;;;;;;;;;;;;;;;;;;4961656;28;19953;-66
2022/06/06 01:29:44;;;;;;;;;;;;;;;;;;4958777;28;19918;-66
2022/06/06 01:32:09;;;;;;;;;;;;;;;;;;4959592;28;20651;-66
2022/06/06 01:34:34;;;;;;;;;;;;;;;;;;4960586;28;19949;-66
2022/06/06 01:37:00;;;;;;;;;;;;;;;;;;4963946;28;20004;-66
2022/06/06 01:39:25;;;;;;;;;;;;;;;;;;4963979;28;19929;-66
2022/06/06 01:41:50;;;;;;;;;;;;;;;;;;4959897;28;19921;-65
2022/06/06 01:44:15;;;;;;;;;;;;;;;;;;4958765;28;19922;-66
2022/06/06 01:46:42;;;;;;;;;;;;;;;;;;4972716;28;19933;-66
2022/06/06 01:49:07;;;;;;;;;;;;;;;;;;4958836;28;20387;-66
2022/06/06 01:51:33;;;;;;;;;;;;;;;;;;4960597;28;20067;-66
2022/06/06 01:53:58;;;;;;;;;;;;;;;;;;4961220;28;19922;-65
2022/06/06 01:56:23;;;;;;;;;;;;;;;;;;4959800;28;19953;-66
2022/06/06 01:58:48;;;;;;;;;;;;;;;;;;4957491;28;19925;-65
2022/06/06 02:01:14;;;;;;;;;;;;;;;;;;4959690;28;19925;-66
2022/06/06 02:03:39;;;;;;;;;;;;;;;;;;4973618;28;19965;-65
2022/06/06 02:06:04;;;;;;;;;;;;;;;;;;4960353;28;19922;-65
2022/06/06 02:08:29;;;;;;;;;;;;;;;;;;4958522;28;19929;-66
2022/06/06 02:10:54;;;;;;;;;;;;;;;;;;4960569;28;19923;-66
2022/06/06 02:13:20;;;;;;;;;;;;;;;;;;4964256;28;19969;-66
2022/06/06 02:15:45;;;;;;;;;;;;;;;;;;4967034;28;19922;-65
2022/06/06 02:18:10;;;;;;;;;;;;;;;;;;4962160;28;19990;-66
2022/06/06 02:20:35;;;;;;;;;;;;;;;;;;4959460;28;19918;-66
2022/06/06 02:23:00;;;;;;;;;;;;;;;;;;4957096;28;19918;-65
2022/06/06 02:25:26;;;;;;;;;;;;;;;;;;4953895;28;20021;-65
2022/06/06 02:27:53;;;;;;;;;;;;;;;;;;4958432;28;20732;-66
2022/06/06 02:30:18;;;;;;;;;;;;;;;;;;4959440;28;19922;-65
2022/06/06 02:32:43;;;;;;;;;;;;;;;;;;4957794;28;19926;-65
2022/06/06 02:35:08;;;;;;;;;;;;;;;;;;4957645;28;19918;-66
2022/06/06 02:37:34;;;;;;;;;;;;;;;;;;4958058;28;20347;-65
2022/06/06 02:39:59;;;;;;;;;;;;;;;;;;4958904;28;20008;-65
2022/06/06 02:42:24;;;;;;;;;;;;;;;;;;4958794;28;19925;-65
2022/06/06 02:44:49;;;;;;;;;;;;;;;;;;4956823;28;19922;-65
2022/06/06 02:47:14;;;;;;;;;;;;;;;;;;4956614;28;20415;-65
2022/06/06 02:49:40;;;;;;;;;;;;;;;;;;4958326;28;19918;-65
2022/06/06 02:52:05;;;;;;;;;;;;;;;;;;4956645;28;19925;-65
2022/06/06 02:54:30;;;;;;;;;;;;;;;;;;4956309;28;19926;-65
2022/06/06 02:56:56;;;;;;;;;;;;;;;;;;4957860;28;19918;-65
2022/06/06 02:59:21;;;;;;;;;;;;;;;;;;4960216;28;19934;-66
2022/06/06 03:01:46;;;;;;;;;;;;;;;;;;4956425;28;19926;-65
2022/06/06 03:04:11;;;;;;;;;;;;;;;;;;4958825;28;20029;-65
2022/06/06 03:06:37;;;;;;;;;;;;;;;;;;4958150;28;19922;-65
2022/06/06 03:09:02;;;;;;;;;;;;;;;;;;4956720;28;19918;-65
2022/06/06 03:11:27;;;;;;;;;;;;;;;;;;4957344;28;20287;-65
2022/06/06 03:13:52;;;;;;;;;;;;;;;;;;4957844;28;19972;-64
2022/06/06 03:21:45;;;;;;;;;;;;;;;;;;4973397;28;20086;-65
2022/06/06 03:24:11;;;;;;;;;;;;;;;;;;4955181;28;20386;-65
2022/06/06 03:26:36;;;;;;;;;;;;;;;;;;4956407;28;20009;-65
2022/06/06 03:29:02;;;;;;;;;;;;;;;;;;4958705;28;19918;-65
2022/06/06 03:31:27;;;;;;;;;;;;;;;;;;4956902;28;19989;-65
2022/06/06 03:33:52;;;;;;;;;;;;;;;;;;4956351;28;19921;-65
2022/06/06 03:36:17;;;;;;;;;;;;;;;;;;4957312;28;20017;-65
2022/06/06 03:38:43;;;;;;;;;;;;;;;;;;4957255;28;19929;-65
2022/06/06 03:41:08;;;;;;;;;;;;;;;;;;4954800;28;19929;-65
2022/06/06 03:43:33;;;;;;;;;;;;;;;;;;4957451;28;19923;-64
2022/06/06 03:45:58;;;;;;;;;;;;;;;;;;4958589;28;19926;-65
2022/06/06 03:48:24;;;;;;;;;;;;;;;;;;4954658;28;19922;-64
2022/06/06 03:50:49;;;;;;;;;;;;;;;;;;4956767;28;19919;-64
2022/06/06 03:53:15;;;;;;;;;;;;;;;;;;4958139;28;19953;-66
2022/06/06 03:55:41;;;;;;;;;;;;;;;;;;4958150;28;19968;-65
2022/06/06 03:58:06;;;;;;;;;;;;;;;;;;4958385;28;19949;-64
2022/06/06 04:00:31;;;;;;;;;;;;;;;;;;4971037;28;19924;-65
2022/06/06 04:02:57;;;;;;;;;;;;;;;;;;4956380;28;19957;-65
2022/06/06 04:05:22;;;;;;;;;;;;;;;;;;4958100;28;19946;-64
2022/06/06 04:07:47;;;;;;;;;;;;;;;;;;4955894;28;19946;-64
2022/06/06 04:10:12;;;;;;;;;;;;;;;;;;4956028;28;19953;-64
2022/06/06 04:12:38;;;;;;;;;;;;;;;;;;4956657;28;19929;-64
2022/06/06 04:15:03;;;;;;;;;;;;;;;;;;4957112;28;19933;-64
2022/06/06 04:17:28;;;;;;;;;;;;;;;;;;4957080;28;19922;-65
2022/06/06 04:19:53;;;;;;;;;;;;;;;;;;4956874;28;19925;-64
2022/06/06 04:22:18;;;;;;;;;;;;;;;;;;4957509;28;19930;-64
2022/06/06 04:24:44;;;;;;;;;;;;;;;;;;4956543;28;20449;-64
2022/06/06 04:27:09;;;;;;;;;;;;;;;;;;4957785;28;19919;-64
2022/06/06 04:29:34;;;;;;;;;;;;;;;;;;4955425;28;19918;-65
2022/06/06 04:31:59;;;;;;;;;;;;;;;;;;4956251;28;19925;-64
2022/06/06 04:34:25;;;;;;;;;;;;;;;;;;4957821;28;19925;-65
2022/06/06 04:36:50;;;;;;;;;;;;;;;;;;4957956;28;19925;-64
2022/06/06 04:39:15;;;;;;;;;;;;;;;;;;4955716;28;19998;-64
2022/06/06 04:41:40;;;;;;;;;;;;;;;;;;4956666;28;19948;-64
2022/06/06 04:44:05;;;;;;;;;;;;;;;;;;4959252;28;20429;-64
2022/06/06 04:46:31;;;;;;;;;;;;;;;;;;4955914;28;20370;-65
2022/06/06 04:48:56;;;;;;;;;;;;;;;;;;4956130;28;20583;-64
2022/06/06 04:51:21;;;;;;;;;;;;;;;;;;4955972;28;19918;-64
2022/06/06 04:53:46;;;;;;;;;;;;;;;;;;4955623;28;19926;-64
2022/06/06 04:56:12;;;;;;;;;;;;;;;;;;4959538;28;19921;-64
2022/06/06 04:58:37;;;;;;;;;;;;;;;;;;4955370;28;20290;-64
2022/06/06 05:01:02;;;;;;;;;;;;;;;;;;4959652;28;20491;-64
2022/06/06 05:03:27;;;;;;;;;;;;;;;;;;4954927;28;19918;-64
2022/06/06 05:05:52;;;;;;;;;;;;;;;;;;4969172;28;19929;-64
2022/06/06 05:08:18;;;;;;;;;;;;;;;;;;4954975;28;20382;-64
2022/06/06 05:10:43;;;;;;;;;;;;;;;;;;4954152;28;19926;-64
2022/06/06 05:13:10;;;;;;;;;;;;;;;;;;4952964;28;20013;-64
2022/06/06 05:15:36;;;;;;;;;;;;;;;;;;4954229;28;19918;-64
2022/06/06 05:18:02;;;;;;;;;;;;;;;;;;4954095;28;20335;-65
2022/06/06 05:20:27;;;;;;;;;;;;;;;;;;4955983;28;19918;-65
2022/06/06 05:22:52;;;;;;;;;;;;;;;;;;4955789;28;19965;-65
2022/06/06 05:25:17;;;;;;;;;;;;;;;;;;4956380;28;20425;-64
2022/06/06 05:27:43;;;;;;;;;;;;;;;;;;4959057;28;20025;-65
2022/06/06 05:30:09;;;;;;;;;;;;;;;;;;4957072;28;19923;-64
2022/06/06 05:32:34;;;;;;;;;;;;;;;;;;4955856;28;19925;-64
2022/06/06 05:34:59;;;;;;;;;;;;;;;;;;4962476;28;19918;-64
2022/06/06 05:37:24;;;;;;;;;;;;;;;;;;4961199;28;19914;-65
2022/06/06 05:39:49;;;;;;;;;;;;;;;;;;4963303;28;19918;-65
2022/06/06 05:42:15;;;;;;;;;;;;;;;;;;4958680;28;19919;-64
2022/06/06 05:44:40;;;;;;;;;;;;;;;;;;4958893;28;20393;-65
2022/06/06 05:47:05;;;;;;;;;;;;;;;;;;4958890;28;19926;-65
2022/06/06 05:49:30;;;;;;;;;;;;;;;;;;4958925;28;19918;-64
2022/06/06 05:51:56;;;;;;;;;;;;;;;;;;4958044;28;19929;-64
2022/06/06 05:54:21;;;;;;;;;;;;;;;;;;4957309;28;19965;-65
2022/06/06 05:56:46;;;;;;;;;;;;;;;;;;4962530;28;19977;-65
2022/06/06 05:59:11;;;;;;;;;;;;;;;;;;4958595;28;20907;-65
2022/06/06 06:01:36;;;;;;;;;;;;;;;;;;4959804;28;20000;-64
2022/06/06 06:04:02;;;;;;;;;;;;;;;;;;4959123;28;19922;-65
2022/06/06 06:06:27;;;;;;;;;;;;;;;;;;4957524;28;19929;-65
2022/06/06 06:08:52;;;;;;;;;;;;;;;;;;4958155;28;19928;-65
2022/06/06 06:11:17;;;;;;;;;;;;;;;;;;4957656;28;19918;-65
2022/06/06 06:13:43;;;;;;;;;;;;;;;;;;4959364;28;21729;-65
2022/06/06 06:16:08;;;;;;;;;;;;;;;;;;4959620;28;20318;-65
2022/06/06 06:18:33;;;;;;;;;;;;;;;;;;4958929;28;19918;-65
2022/06/06 06:20:58;;;;;;;;;;;;;;;;;;4973979;28;19938;-65
2022/06/06 06:23:23;;;;;;;;;;;;;;;;;;4960079;28;20020;-65
2022/06/06 06:25:49;;;;;;;;;;;;;;;;;;4957800;28;20692;-65
2022/06/06 06:28:14;;;;;;;;;;;;;;;;;;4959065;28;19925;-65
2022/06/06 06:30:40;;;;;;;;;;;;;;;;;;4974279;28;19922;-65
2022/06/06 06:33:05;;;;;;;;;;;;;;;;;;4958693;28;19965;-65
2022/06/06 06:35:30;;;;;;;;;;;;;;;;;;4958876;28;20371;-65
2022/06/06 06:37:55;;;;;;;;;;;;;;;;;;4959151;28;19918;-65
2022/06/06 06:40:20;;;;;;;;;;;;;;;;;;4958694;28;19918;-65
2022/06/06 06:42:46;;;;;;;;;;;;;;;;;;4958443;28;19946;-64
2022/06/06 06:45:12;;;;;;;;;;;;;;;;;;4957784;28;19948;-65
2022/06/06 06:47:37;;;;;;;;;;;;;;;;;;4960090;28;19922;-64
2022/06/06 06:50:02;;;;;;;;;;;;;;;;;;4961660;28;19918;-64
2022/06/06 06:52:27;;;;;;;;;;;;;;;;;;4957621;28;19922;-65
2022/06/06 06:54:52;;;;;;;;;;;;;;;;;;4957552;28;19964;-65
2022/06/06 06:57:18;;;;;;;;;;;;;;;;;;4958615;28;19923;-65
2022/06/06 06:59:43;;;;;;;;;;;;;;;;;;4958746;28;20275;-65
2022/06/06 07:08:36;;;;;;;;;;;;;;;;;;4965361;28;19924;-64
2022/06/06 07:10:30;;;;;;;;;;;;;;;;;;4958023;28;19926;-65
2022/06/06 07:12:56;;;;;;;;;;;;;;;;;;4973336;28;19918;-65
2022/06/06 07:15:21;;;;;;;;;;;;;;;;;;4958709;28;19914;-65
2022/06/06 07:17:46;;;;;;;;;;;;;;;;;;4958545;28;19918;-65
2022/06/06 07:20:11;;;;;;;;;;;;;;;;;;4974764;28;19925;-66
2022/06/06 07:22:59;;;;;;;;;;;;;;;;;;4973382;28;19921;-65
2022/06/06 07:25:22;;;;;;;;;;;;;;;;;;4957180;28;19972;-66
2022/06/06 07:27:47;;;;;;;;;;;;;;;;;;4956284;28;20048;-64
2022/06/06 07:30:12;;;;;;;;;;;;;;;;;;4958246;28;19958;-65
2022/06/06 07:32:37;;;;;;;;;;;;;;;;;;4956897;28;19918;-65
2022/06/06 07:35:03;;;;;;;;;;;;;;;;;;4958771;28;19921;-65
2022/06/06 07:37:29;;;;;;;;;;;;;;;;;;4956542;28;19928;-65
2022/06/06 07:39:54;;;;;;;;;;;;;;;;;;4956486;28;19923;-65
2022/06/06 07:42:19;;;;;;;;;;;;;;;;;;4958228;28;19951;-65
2022/06/06 07:44:45;;;;;;;;;;;;;;;;;;4955869;28;19932;-66
2022/06/06 07:47:11;;;;;;;;;;;;;;;;;;4972833;28;19926;-66
2022/06/06 07:49:37;;;;;;;;;;;;;;;;;;4957349;28;19918;-66
2022/06/06 07:52:02;;;;;;;;;;;;;;;;;;4957302;28;19926;-66
2022/06/06 07:54:27;;;;;;;;;;;;;;;;;;4960394;28;19922;-66
2022/06/06 07:56:52;;;;;;;;;;;;;;;;;;4956440;28;19972;-66
2022/06/06 07:59:18;;;;;;;;;;;;;;;;;;4954394;28;20009;-66
2022/06/06 08:01:43;;;;;;;;;;;;;;;;;;4958812;28;19918;-66
2022/06/06 08:04:08;;;;;;;;;;;;;;;;;;4959652;28;20490;-66
2022/06/06 08:06:33;;;;;;;;;;;;;;;;;;4954976;28;19922;-66
2022/06/06 08:08:59;;;;;;;;;;;;;;;;;;4954814;28;19938;-66
2022/06/06 08:11:24;;;;;;;;;;;;;;;;;;4956113;28;20378;-66
2022/06/06 08:13:49;;;;;;;;;;;;;;;;;;4956369;28;19929;-66
2022/06/06 08:16:14;;;;;;;;;;;;;;;;;;4959634;28;19918;-66
2022/06/06 08:18:39;;;;;;;;;;;;;;;;;;4955195;28;19934;-66
2022/06/06 08:21:05;;;;;;;;;;;;;;;;;;4956287;28;19925;-66
2022/06/06 08:23:30;;;;;;;;;;;;;;;;;;4954565;28;19968;-67
2022/06/06 08:25:55;;;;;;;;;;;;;;;;;;4955511;28;20013;-66
2022/06/06 08:28:20;;;;;;;;;;;;;;;;;;4956016;28;19925;-68
2022/06/06 08:30:46;;;;;;;;;;;;;;;;;;4954943;28;19925;-66
2022/06/06 08:33:11;;;;;;;;;;;;;;;;;;4972994;28;19922;-66
2022/06/06 08:35:36;;;;;;;;;;;;;;;;;;4956648;28;19925;-66
2022/06/06 08:38:02;;;;;;;;;;;;;;;;;;4957600;28;19968;-66
2022/06/06 08:40:27;;;;;;;;;;;;;;;;;;4957031;28;19957;-66
2022/06/06 08:42:52;;;;;;;;;;;;;;;;;;4957643;28;19925;-66
2022/06/06 08:45:18;;;;;;;;;;;;;;;;;;4955553;28;20008;-66
2022/06/06 08:47:45;;;;;;;;;;;;;;;;;;4953894;28;20435;-68
2022/06/06 08:52:54;;;;;;;;;;;;;;;;;;4953916;28;19949;-66
2022/06/06 08:55:20;;;;;;;;;;;;;;;;;;4956721;28;20016;-66
2022/06/06 08:57:45;;;;;;;;;;;;;;;;;;4954661;28;20494;-65
2022/06/06 09:00:11;;;;;;;;;;;;;;;;;;4968619;28;19922;-66
2022/06/06 09:02:36;;;;;;;;;;;;;;;;;;4953644;28;19969;-65
2022/06/06 09:05:02;;;;;;;;;;;;;;;;;;4938813;28;19937;-65
2022/06/06 09:07:27;;;;;;;;;;;;;;;;;;4946671;28;20402;-65
2022/06/06 09:09:52;;;;;;;;;;;;;;;;;;4946538;28;19918;-66
2022/06/06 09:12:17;;;;;;;;;;;;;;;;;;4952709;28;19922;-66
2022/06/06 09:14:43;;;;;;;;;;;;;;;;;;4949775;28;19922;-65
2022/06/06 09:17:08;;;;;;;;;;;;;;;;;;4948390;28;19924;-65
2022/06/06 09:19:33;;;;;;;;;;;;;;;;;;4954567;28;20626;-66
2022/06/06 09:21:58;;;;;;;;;;;;;;;;;;4948911;28;19925;-67
2022/06/06 09:24:24;;;;;;;;;;;;;;;;;;4953085;28;19926;-65
2022/06/06 09:26:49;;;;;;;;;;;;;;;;;;4963936;28;19922;-67
2022/06/06 09:29:14;;;;;;;;;;;;;;;;;;4949198;28;19988;-66
2022/06/06 09:31:39;;;;;;;;;;;;;;;;;;4956446;28;20061;-66
2022/06/06 09:34:05;;;;;;;;;;;;;;;;;;4947773;28;19967;-67
2022/06/06 09:36:30;;;;;;;;;;;;;;;;;;4955703;28;19918;-67
2022/06/06 09:38:56;;;;;;;;;;;;;;;;;;4949919;28;20299;-67
2022/06/06 09:41:21;;;;;;;;;;;;;;;;;;4950542;28;20614;-67
2022/06/06 09:43:46;;;;;;;;;;;;;;;;;;4969800;28;20033;-66
2022/06/06 09:46:12;;;;;;;;;;;;;;;;;;4944704;28;19932;-67
2022/06/06 09:48:37;;;;;;;;;;;;;;;;;;4958208;28;19918;-66
2022/06/06 09:51:02;;;;;;;;;;;;;;;;;;4949246;28;20338;-67
2022/06/06 09:53:27;;;;;;;;;;;;;;;;;;4967549;28;19925;-67
2022/06/06 10:01:20;;;;;;;;;;;;;;;;;;4950933;28;19922;-68
2022/06/06 10:03:45;;;;;;;;;;;;;;;;;;4948510;28;19918;-66
2022/06/06 10:06:11;;;;;;;;;;;;;;;;;;4948844;28;19923;-67
2022/06/06 10:08:36;;;;;;;;;;;;;;;;;;4957890;28;19919;-67
2022/06/06 10:11:01;;;;;;;;;;;;;;;;;;4951911;28;19922;-67
2022/06/06 10:13:26;;;;;;;;;;;;;;;;;;4971144;28;19953;-67
2022/06/06 10:15:52;;;;;;;;;;;;;;;;;;4949382;28;20496;-68
2022/06/06 10:18:17;;;;;;;;;;;;;;;;;;4950025;28;19923;-68
2022/06/06 10:20:42;;;;;;;;;;;;;;;;;;4973123;28;20420;-68
2022/06/06 10:23:07;;;;;;;;;;;;;;;;;;4950660;28;20414;-67
2022/06/06 10:25:33;;;;;;;;;;;;;;;;;;4955379;28;19989;-68
2022/06/06 10:27:58;;;;;;;;;;;;;;;;;;4951016;28;20497;-68
2022/06/06 10:30:23;;;;;;;;;;;;;;;;;;4949860;28;19918;-68
2022/06/06 10:32:49;;;;;;;;;;;;;;;;;;4953890;28;20017;-67
2022/06/06 10:35:14;;;;;;;;;;;;;;;;;;4952577;28;19922;-67
2022/06/06 10:37:39;;;;;;;;;;;;;;;;;;4955746;28;19922;-67
2022/06/06 10:40:04;;;;;;;;;;;;;;;;;;4949357;28;20294;-67
2022/06/06 10:42:30;;;;;;;;;;;;;;;;;;4948549;28;20350;-68
2022/06/06 10:44:55;;;;;;;;;;;;;;;;;;4952909;28;19976;-67
2022/06/06 10:47:20;;;;;;;;;;;;;;;;;;4948556;28;20222;-67
2022/06/06 10:49:45;;;;;;;;;;;;;;;;;;4954789;28;19918;-67
2022/06/06 10:52:11;;;;;;;;;;;;;;;;;;4950810;28;19956;-68
2022/06/06 10:54:36;;;;;;;;;;;;;;;;;;4948894;28;19919;-68
2022/06/06 10:57:02;;;;;;;;;;;;;;;;;;4955093;28;19945;-68
2022/06/06 10:59:27;;;;;;;;;;;;;;;;;;4949035;28;20040;-69
2022/06/06 11:01:52;;;;;;;;;;;;;;;;;;4954935;28;20009;-69
2022/06/06 11:04:17;;;;;;;;;;;;;;;;;;4954261;28;20329;-67
2022/06/06 11:06:42;;;;;;;;;;;;;;;;;;4951921;28;19918;-69
2022/06/06 11:09:08;;;;;;;;;;;;;;;;;;4954114;28;20321;-70
2022/06/06 11:11:33;;;;;;;;;;;;;;;;;;4945853;28;19918;-69
2022/06/06 11:13:58;;;;;;;;;;;;;;;;;;4953293;28;19989;-69
2022/06/06 11:16:23;;;;;;;;;;;;;;;;;;4948600;28;19957;-69
2022/06/06 11:18:49;;;;;;;;;;;;;;;;;;4947121;28;20423;-69
2022/06/06 11:21:14;;;;;;;;;;;;;;;;;;4952619;28;20687;-70
2022/06/06 11:23:40;;;;;;;;;;;;;;;;;;4963560;28;20282;-69
2022/06/06 11:26:05;;;;;;;;;;;;;;;;;;4950988;28;19926;-68
2022/06/06 11:28:31;;;;;;;;;;;;;;;;;;4951815;28;19919;-69
2022/06/06 11:30:56;;;;;;;;;;;;;;;;;;4949172;28;20252;-69
2022/06/06 11:33:21;;;;;;;;;;;;;;;;;;4954230;28;19918;-69
2022/06/06 11:35:46;;;;;;;;;;;;;;;;;;4947685;28;19922;-70
2022/06/06 11:38:12;;;;;;;;;;;;;;;;;;4951828;28;19918;-68
2022/06/06 11:40:37;;;;;;;;;;;;;;;;;;4951749;28;20311;-69
2022/06/06 11:43:02;;;;;;;;;;;;;;;;;;4948428;28;19920;-70
2022/06/06 11:45:28;;;;;;;;;;;;;;;;;;4954851;28;20041;-70
2022/06/06 11:47:53;;;;;;;;;;;;;;;;;;4950282;28;19964;-70
2022/06/06 11:50:19;;;;;;;;;;;;;;;;;;4952850;28;20009;-68
2022/06/06 11:52:44;;;;;;;;;;;;;;;;;;4955189;28;20366;-69
2022/06/06 11:55:10;;;;;;;;;;;;;;;;;;4951622;28;20029;-68
2022/06/06 11:57:36;;;;;;;;;;;;;;;;;;4955360;28;20382;-69
2022/06/06 12:00:01;;;;;;;;;;;;;;;;;;4948391;28;20301;-69
2022/06/06 12:02:29;;;;;;;;;;;;;;;;;;4952132;28;19958;-69
2022/06/06 12:04:54;;;;;;;;;;;;;;;;;;4950667;28;20276;-70
2022/06/06 12:07:19;;;;;;;;;;;;;;;;;;4945296;28;19922;-71
2022/06/06 12:09:45;;;;;;;;;;;;;;;;;;4958113;28;20525;-70
2022/06/06 12:12:11;;;;;;;;;;;;;;;;;;4945554;28;20001;-69
2022/06/06 12:14:36;;;;;;;;;;;;;;;;;;4944503;28;20490;-68
2022/06/06 12:17:01;;;;;;;;;;;;;;;;;;4944947;28;19958;-71
2022/06/06 12:19:27;;;;;;;;;;;;;;;;;;4939691;28;20412;-69
2022/06/06 12:21:53;;;;;;;;;;;;;;;;;;4951102;28;19918;-68
2022/06/06 12:24:19;;;;;;;;;;;;;;;;;;4938673;28;19993;-69
2022/06/06 12:26:44;;;;;;;;;;;;;;;;;;4942746;28;20500;-69
2022/06/06 12:29:09;;;;;;;;;;;;;;;;;;4947516;28;20563;-69
2022/06/06 12:31:34;;;;;;;;;;;;;;;;;;4942733;28;19970;-70
2022/06/06 12:34:00;;;;;;;;;;;;;;;;;;4944711;28;19922;-70
2022/06/06 12:36:25;;;;;;;;;;;;;;;;;;4941373;28;20084;-69
2022/06/06 12:38:50;;;;;;;;;;;;;;;;;;4937894;28;19922;-69
2022/06/06 12:41:15;;;;;;;;;;;;;;;;;;4944465;28;20485;-70
2022/06/06 12:43:41;;;;;;;;;;;;;;;;;;4943713;28;19969;-70
2022/06/06 12:46:06;;;;;;;;;;;;;;;;;;4960719;28;19997;-70
2022/06/06 12:48:31;;;;;;;;;;;;;;;;;;4956233;28;19922;-69
2022/06/06 12:50:56;;;;;;;;;;;;;;;;;;4951678;28;19922;-70
2022/06/06 12:53:22;;;;;;;;;;;;;;;;;;4959946;28;19969;-69
2022/06/06 12:56:37;;;;;;;;;;;;;;;;;;4953070;28;19969;-69
2022/06/06 12:58:33;;;;;;;;;;;;;;;;;;4958498;28;19925;-69
2022/06/06 13:04:02;;;;;;;;;;;;;;;;;;4895070;29;19919;-70
2022/06/06 13:06:27;;;;;;;;;;;;;;;;;;4887094;29;19942;-71
2022/06/06 13:08:53;;;;;;;;;;;;;;;;;;4919977;28;19918;-70
2022/06/06 13:11:18;;;;;;;;;;;;;;;;;;4957125;28;19965;-70
2022/06/06 13:13:44;;;;;;;;;;;;;;;;;;4958788;28;19983;-70
2022/06/06 13:16:11;;;;;;;;;;;;;;;;;;4951821;28;19918;-70
2022/06/06 13:18:36;;;;;;;;;;;;;;;;;;4955124;28;19918;-70
2022/06/06 13:21:02;;;;;;;;;;;;;;;;;;4950016;28;20287;-70
2022/06/06 13:23:29;;;;;;;;;;;;;;;;;;4954460;28;19918;-70
2022/06/06 13:25:54;;;;;;;;;;;;;;;;;;4959248;28;19933;-70
2022/06/06 13:28:20;;;;;;;;;;;;;;;;;;4965745;28;19918;-70
2022/06/06 13:30:45;;;;;;;;;;;;;;;;;;4958925;28;20348;-70
2022/06/06 13:33:10;;;;;;;;;;;;;;;;;;4954177;28;19922;-70
2022/06/06 13:35:35;;;;;;;;;;;;;;;;;;4957092;28;19925;-70
2022/06/06 13:38:01;;;;;;;;;;;;;;;;;;4958248;28;20442;-71
2022/06/06 13:40:27;;;;;;;;;;;;;;;;;;4951837;28;19953;-70
2022/06/06 13:42:55;;;;;;;;;;;;;;;;;;4959802;28;19925;-70
2022/06/06 13:45:20;;;;;;;;;;;;;;;;;;4953550;28;19923;-70
2022/06/06 13:47:45;;;;;;;;;;;;;;;;;;4950645;28;20730;-69
2022/06/06 13:50:11;;;;;;;;;;;;;;;;;;4962457;28;19925;-70
2022/06/06 13:52:36;;;;;;;;;;;;;;;;;;4953138;28;19918;-71
2022/06/06 13:55:01;;;;;;;;;;;;;;;;;;4958470;28;19922;-70
2022/06/06 13:57:27;;;;;;;;;;;;;;;;;;4954194;28;19942;-70
2022/06/06 13:59:52;;;;;;;;;;;;;;;;;;4954722;28;19949;-71
2022/06/06 14:02:17;;;;;;;;;;;;;;;;;;4961959;28;19918;-71
2022/06/06 14:04:42;;;;;;;;;;;;;;;;;;4954116;28;19918;-70
2022/06/06 14:07:08;;;;;;;;;;;;;;;;;;4968526;28;19922;-72
2022/06/06 14:09:33;;;;;;;;;;;;;;;;;;4957338;28;19918;-71
2022/06/06 14:11:58;;;;;;;;;;;;;;;;;;4947986;28;19989;-68
2022/06/06 14:14:23;;;;;;;;;;;;;;;;;;4963277;28;19996;-70
2022/06/06 14:16:49;;;;;;;;;;;;;;;;;;4953811;28;20370;-70
2022/06/06 14:19:14;;;;;;;;;;;;;;;;;;4956615;28;20282;-72
2022/06/06 14:21:39;;;;;;;;;;;;;;;;;;4951163;28;19965;-70
2022/06/06 14:24:05;;;;;;;;;;;;;;;;;;4951087;28;19929;-72
2022/06/06 14:26:30;;;;;;;;;;;;;;;;;;4959341;28;19973;-72
2022/06/06 14:28:55;;;;;;;;;;;;;;;;;;4952380;28;19974;-69
2022/06/06 14:31:21;;;;;;;;;;;;;;;;;;4959642;28;19922;-69
2022/06/06 14:33:47;;;;;;;;;;;;;;;;;;4953129;28;19918;-70
2022/06/06 14:36:12;;;;;;;;;;;;;;;;;;4952274;28;19919;-69
2022/06/06 14:38:38;;;;;;;;;;;;;;;;;;4957682;28;19941;-69
2022/06/06 14:41:03;;;;;;;;;;;;;;;;;;4948377;28;20331;-69
2022/06/06 14:43:29;;;;;;;;;;;;;;;;;;4956092;28;20013;-69
2022/06/06 14:45:54;;;;;;;;;;;;;;;;;;4951135;28;19922;-70
2022/06/06 14:48:19;;;;;;;;;;;;;;;;;;4953184;28;20017;-69
2022/06/06 14:50:48;;;;;;;;;;;;;;;;;;4953394;28;20371;-71
2022/06/06 14:53:13;;;;;;;;;;;;;;;;;;4950306;28;19919;-70
2022/06/06 14:55:38;;;;;;;;;;;;;;;;;;4955468;28;19918;-70
2022/06/06 14:58:03;;;;;;;;;;;;;;;;;;4948758;28;19918;-69
2022/06/06 15:00:29;;;;;;;;;;;;;;;;;;4951946;28;19930;-70
2022/06/06 15:02:54;;;;;;;;;;;;;;;;;;4958324;28;20566;-70
2022/06/06 15:05:21;;;;;;;;;;;;;;;;;;4952501;28;20379;-69
2022/06/06 15:07:46;;;;;;;;;;;;;;;;;;4956301;28;19919;-69
2022/06/06 15:10:11;;;;;;;;;;;;;;;;;;4951283;28;20195;-71
2022/06/06 15:12:36;;;;;;;;;;;;;;;;;;4950703;28;20871;-70
2022/06/06 15:15:02;;;;;;;;;;;;;;;;;;4952782;28;19918;-71
2022/06/06 15:17:27;;;;;;;;;;;;;;;;;;4954057;28;19925;-70
2022/06/06 15:19:53;;;;;;;;;;;;;;;;;;4956259;28;19922;-70
2022/06/06 15:22:18;;;;;;;;;;;;;;;;;;4965029;28;19918;-71
2022/06/06 15:24:43;;;;;;;;;;;;;;;;;;4948239;28;19926;-70
2022/06/06 15:27:08;;;;;;;;;;;;;;;;;;4954676;28;20320;-70
2022/06/06 15:29:34;;;;;;;;;;;;;;;;;;4946707;28;19918;-70
2022/06/06 15:31:59;;;;;;;;;;;;;;;;;;4952550;28;19918;-72
2022/06/06 15:34:24;;;;;;;;;;;;;;;;;;4944631;28;19922;-70
2022/06/06 15:36:50;;;;;;;;;;;;;;;;;;4949587;28;19954;-72
2022/06/06 15:39:15;;;;;;;;;;;;;;;;;;4954397;28;19934;-69
2022/06/06 15:41:40;;;;;;;;;;;;;;;;;;4946958;28;20351;-70
2022/06/06 15:44:06;;;;;;;;;;;;;;;;;;4954173;28;19918;-71
2022/06/06 15:46:31;;;;;;;;;;;;;;;;;;4951583;28;19930;-71
2022/06/06 15:48:56;;;;;;;;;;;;;;;;;;4947351;28;20129;-71
2022/06/06 15:51:22;;;;;;;;;;;;;;;;;;4955051;28;19918;-70
2022/06/06 15:53:47;;;;;;;;;;;;;;;;;;4946001;28;20028;-71
2022/06/06 15:56:12;;;;;;;;;;;;;;;;;;4955918;28;20319;-70
2022/06/06 15:58:37;;;;;;;;;;;;;;;;;;4949417;28;19964;-68
2022/06/06 16:01:03;;;;;;;;;;;;;;;;;;4949351;28;19918;-71
2022/06/06 16:03:28;;;;;;;;;;;;;;;;;;4956193;28;20392;-70
2022/06/06 16:05:53;;;;;;;;;;;;;;;;;;4949091;28;20001;-71
2022/06/06 16:08:18;;;;;;;;;;;;;;;;;;4954048;28;19928;-70
2022/06/06 16:10:44;;;;;;;;;;;;;;;;;;4950498;28;20665;-69
2022/06/06 16:13:09;;;;;;;;;;;;;;;;;;4948697;28;19918;-67
2022/06/06 16:15:34;;;;;;;;;;;;;;;;;;4970376;28;19922;-70
2022/06/06 16:17:59;;;;;;;;;;;;;;;;;;4946046;28;19925;-70
2022/06/06 16:20:25;;;;;;;;;;;;;;;;;;4956799;28;19928;-68
2022/06/06 16:22:50;;;;;;;;;;;;;;;;;;4950539;28;20058;-70
2022/06/06 16:25:16;;;;;;;;;;;;;;;;;;4962949;28;19937;-70
2022/06/06 16:27:41;;;;;;;;;;;;;;;;;;4960098;28;19922;-68
2022/06/06 16:30:08;;;;;;;;;;;;;;;;;;4951348;28;20406;-70
2022/06/06 16:32:33;;;;;;;;;;;;;;;;;;4959196;28;19922;-68
2022/06/06 16:34:58;;;;;;;;;;;;;;;;;;4949251;28;19919;-72
2022/06/06 16:37:23;;;;;;;;;;;;;;;;;;4944494;28;20623;-68
2022/06/06 16:39:49;;;;;;;;;;;;;;;;;;4953413;28;19977;-68
2022/06/06 16:48:00;;;;;;;;;;;;;;;;;;4953419;28;20061;-69
2022/06/06 16:50:25;;;;;;;;;;;;;;;;;;4947404;28;19965;-69
2022/06/06 16:52:51;;;;;;;;;;;;;;;;;;4948786;28;19930;-68
2022/06/06 16:55:16;;;;;;;;;;;;;;;;;;4952484;28;20031;-68
2022/06/06 16:57:41;;;;;;;;;;;;;;;;;;4933877;28;19926;-69
2022/06/06 17:00:07;;;;;;;;;;;;;;;;;;4952985;28;20279;-69
2022/06/06 17:02:34;;;;;;;;;;;;;;;;;;4946990;28;20330;-69
2022/06/06 17:04:59;;;;;;;;;;;;;;;;;;4946476;28;19930;-69